sensor_id;sensor_type;location;lat;lon;timestamp;pressure;altitude;pressure_sealevel;temperature;humidity
60487;BME280;46327;39.866;-0.072;2022-09-01T00:00:47;101562.33;;;28.64;47.95
60487;BME280;46327;39.866;-0.072;2022-09-01T00:03:18;101557.10;;;28.10;48.19
60487;BME280;46327;39.866;-0.072;2022-09-01T00:05:45;101554.21;;;28.15;48.71
60487;BME280;46327;39.866;-0.072;2022-09-01T00:08:13;101551.07;;;28.13;48.73
60487;BME280;46327;39.866;-0.072;2022-09-01T00:10:41;101548.42;;;28.23;48.47
60487;BME280;46327;39.866;-0.072;2022-09-01T00:13:09;101547.89;;;27.93;48.95
60487;BME280;46327;39.866;-0.072;2022-09-01T00:15:36;101542.86;;;27.77;49.31
60487;BME280;46327;39.866;-0.072;2022-09-01T00:18:03;101538.07;;;28.07;48.72
60487;BME280;46327;39.866;-0.072;2022-09-01T00:20:31;101535.97;;;27.99;48.91
60487;BME280;46327;39.866;-0.072;2022-09-01T00:22:59;101531.85;;;27.82;49.35
60487;BME280;46327;39.866;-0.072;2022-09-01T00:25:27;101528.90;;;27.95;49.44
60487;BME280;46327;39.866;-0.072;2022-09-01T00:27:54;101522.73;;;27.36;50.45
60487;BME280;46327;39.866;-0.072;2022-09-01T00:30:22;101521.01;;;27.47;49.97
60487;BME280;46327;39.866;-0.072;2022-09-01T00:32:49;101520.11;;;27.66;49.59
60487;BME280;46327;39.866;-0.072;2022-09-01T00:35:18;101518.74;;;27.72;49.41
60487;BME280;46327;39.866;-0.072;2022-09-01T00:37:45;101514.93;;;27.39;50.07
60487;BME280;46327;39.866;-0.072;2022-09-01T00:40:15;101513.80;;;28.04;48.88
60487;BME280;46327;39.866;-0.072;2022-09-01T00:42:44;101512.94;;;27.55;49.69
60487;BME280;46327;39.866;-0.072;2022-09-01T00:45:12;101512.85;;;27.97;48.86
60487;BME280;46327;39.866;-0.072;2022-09-01T00:47:39;101511.85;;;28.40;48.52
60487;BME280;46327;39.866;-0.072;2022-09-01T00:50:08;101512.39;;;27.88;49.16
60487;BME280;46327;39.866;-0.072;2022-09-01T00:52:38;101508.51;;;27.43;50.46
60487;BME280;46327;39.866;-0.072;2022-09-01T00:55:12;101515.96;;;27.73;50.04
60487;BME280;46327;39.866;-0.072;2022-09-01T00:57:41;101515.25;;;27.59;50.44
60487;BME280;46327;39.866;-0.072;2022-09-01T01:00:14;101518.58;;;28.12;50.09
60487;BME280;46327;39.866;-0.072;2022-09-01T01:02:43;101514.75;;;27.24;51.22
60487;BME280;46327;39.866;-0.072;2022-09-01T01:05:11;101512.04;;;27.70;50.50
60487;BME280;46327;39.866;-0.072;2022-09-01T01:07:39;101514.34;;;28.09;49.88
60487;BME280;46327;39.866;-0.072;2022-09-01T01:10:09;101517.33;;;27.95;50.19
60487;BME280;46327;39.866;-0.072;2022-09-01T01:12:36;101508.66;;;27.31;51.83
60487;BME280;46327;39.866;-0.072;2022-09-01T01:15:06;101502.00;;;26.87;52.21
60487;BME280;46327;39.866;-0.072;2022-09-01T01:17:34;101493.04;;;27.23;51.60
60487;BME280;46327;39.866;-0.072;2022-09-01T01:20:02;101488.05;;;27.53;51.03
60487;BME280;46327;39.866;-0.072;2022-09-01T01:22:35;101484.72;;;27.73;50.64
60487;BME280;46327;39.866;-0.072;2022-09-01T01:25:06;101479.44;;;27.05;51.82
60487;BME280;46327;39.866;-0.072;2022-09-01T01:27:34;101478.49;;;26.74;52.68
60487;BME280;46327;39.866;-0.072;2022-09-01T01:30:03;101479.82;;;26.95;52.79
60487;BME280;46327;39.866;-0.072;2022-09-01T01:32:31;101480.80;;;26.86;52.51
60487;BME280;46327;39.866;-0.072;2022-09-01T01:34:58;101476.14;;;27.40;51.99
60487;BME280;46327;39.866;-0.072;2022-09-01T01:37:26;101473.42;;;27.44;51.54
60487;BME280;46327;39.866;-0.072;2022-09-01T01:39:54;101468.38;;;27.42;52.07
60487;BME280;46327;39.866;-0.072;2022-09-01T01:42:21;101465.36;;;27.57;51.49
60487;BME280;46327;39.866;-0.072;2022-09-01T01:44:49;101464.20;;;27.03;52.11
60487;BME280;46327;39.866;-0.072;2022-09-01T01:47:16;101471.29;;;27.37;52.00
60487;BME280;46327;39.866;-0.072;2022-09-01T01:49:44;101477.87;;;27.55;51.81
60487;BME280;46327;39.866;-0.072;2022-09-01T01:52:12;101475.25;;;27.49;51.96
60487;BME280;46327;39.866;-0.072;2022-09-01T01:54:40;101471.29;;;27.23;52.17
60487;BME280;46327;39.866;-0.072;2022-09-01T01:57:07;101463.31;;;27.37;52.89
60487;BME280;46327;39.866;-0.072;2022-09-01T01:59:35;101465.72;;;27.14;52.86
60487;BME280;46327;39.866;-0.072;2022-09-01T02:02:03;101461.24;;;27.31;53.24
60487;BME280;46327;39.866;-0.072;2022-09-01T02:04:30;101460.91;;;27.03;53.23
60487;BME280;46327;39.866;-0.072;2022-09-01T02:06:58;101460.79;;;26.81;54.33
60487;BME280;46327;39.866;-0.072;2022-09-01T02:09:27;101462.38;;;26.72;54.04
60487;BME280;46327;39.866;-0.072;2022-09-01T02:11:54;101460.90;;;27.19;53.11
60487;BME280;46327;39.866;-0.072;2022-09-01T02:14:23;101458.52;;;26.59;54.85
60487;BME280;46327;39.866;-0.072;2022-09-01T02:16:50;101456.09;;;26.87;54.37
60487;BME280;46327;39.866;-0.072;2022-09-01T02:19:18;101453.30;;;26.77;54.56
60487;BME280;46327;39.866;-0.072;2022-09-01T02:21:45;101447.39;;;27.13;53.83
60487;BME280;46327;39.866;-0.072;2022-09-01T02:24:12;101449.37;;;27.29;53.49
60487;BME280;46327;39.866;-0.072;2022-09-01T02:26:42;101451.65;;;26.93;54.14
60487;BME280;46327;39.866;-0.072;2022-09-01T02:29:12;101450.82;;;26.94;54.24
60487;BME280;46327;39.866;-0.072;2022-09-01T02:31:40;101450.72;;;27.30;53.43
60487;BME280;46327;39.866;-0.072;2022-09-01T02:34:08;101447.10;;;27.19;53.61
60487;BME280;46327;39.866;-0.072;2022-09-01T02:36:36;101443.84;;;26.99;54.03
60487;BME280;46327;39.866;-0.072;2022-09-01T02:39:04;101442.17;;;27.44;53.19
60487;BME280;46327;39.866;-0.072;2022-09-01T02:41:31;101437.14;;;26.32;54.80
60487;BME280;46327;39.866;-0.072;2022-09-01T02:43:58;101436.53;;;26.94;54.15
60487;BME280;46327;39.866;-0.072;2022-09-01T02:46:26;101441.77;;;26.74;54.00
60487;BME280;46327;39.866;-0.072;2022-09-01T02:48:53;101449.90;;;27.03;53.82
60487;BME280;46327;39.866;-0.072;2022-09-01T02:51:23;101457.02;;;26.68;54.55
60487;BME280;46327;39.866;-0.072;2022-09-01T02:53:51;101453.90;;;27.26;53.38
60487;BME280;46327;39.866;-0.072;2022-09-01T02:56:21;101456.33;;;27.34;53.24
60487;BME280;46327;39.866;-0.072;2022-09-01T02:58:49;101463.03;;;27.61;52.62
60487;BME280;46327;39.866;-0.072;2022-09-01T03:01:20;101467.99;;;27.82;52.13
60487;BME280;46327;39.866;-0.072;2022-09-01T03:03:48;101467.64;;;27.52;52.57
60487;BME280;46327;39.866;-0.072;2022-09-01T03:06:16;101468.10;;;27.95;51.83
60487;BME280;46327;39.866;-0.072;2022-09-01T03:08:44;101468.63;;;27.76;51.52
60487;BME280;46327;39.866;-0.072;2022-09-01T03:11:12;101469.20;;;27.48;52.11
60487;BME280;46327;39.866;-0.072;2022-09-01T03:13:40;101468.94;;;27.44;52.10
60487;BME280;46327;39.866;-0.072;2022-09-01T03:16:09;101463.36;;;27.21;52.46
60487;BME280;46327;39.866;-0.072;2022-09-01T03:18:37;101461.12;;;27.20;52.42
60487;BME280;46327;39.866;-0.072;2022-09-01T03:21:05;101466.46;;;27.85;51.69
60487;BME280;46327;39.866;-0.072;2022-09-01T03:23:33;101462.97;;;27.29;52.69
60487;BME280;46327;39.866;-0.072;2022-09-01T03:26:01;101463.67;;;26.93;53.37
60487;BME280;46327;39.866;-0.072;2022-09-01T03:28:29;101460.79;;;27.02;53.61
60487;BME280;46327;39.866;-0.072;2022-09-01T03:30:57;101463.42;;;26.27;54.66
60487;BME280;46327;39.866;-0.072;2022-09-01T03:33:26;101459.62;;;26.36;53.99
60487;BME280;46327;39.866;-0.072;2022-09-01T03:35:55;101460.00;;;26.08;54.43
60487;BME280;46327;39.866;-0.072;2022-09-01T03:38:24;101452.54;;;26.57;53.87
60487;BME280;46327;39.866;-0.072;2022-09-01T03:40:55;101452.47;;;26.28;54.42
60487;BME280;46327;39.866;-0.072;2022-09-01T03:43:24;101450.84;;;26.71;53.59
60487;BME280;46327;39.866;-0.072;2022-09-01T03:45:51;101448.98;;;26.49;53.90
60487;BME280;46327;39.866;-0.072;2022-09-01T03:48:19;101448.47;;;26.76;53.26
60487;BME280;46327;39.866;-0.072;2022-09-01T03:50:47;101447.83;;;27.26;52.56
60487;BME280;46327;39.866;-0.072;2022-09-01T03:53:17;101449.71;;;26.60;53.25
60487;BME280;46327;39.866;-0.072;2022-09-01T03:55:46;101448.48;;;26.80;52.94
60487;BME280;46327;39.866;-0.072;2022-09-01T03:58:16;101448.29;;;26.34;53.70
60487;BME280;46327;39.866;-0.072;2022-09-01T04:00:46;101441.95;;;27.32;52.22
60487;BME280;46327;39.866;-0.072;2022-09-01T04:03:15;101443.38;;;27.49;51.44
60487;BME280;46327;39.866;-0.072;2022-09-01T04:05:43;101437.90;;;27.21;52.21
60487;BME280;46327;39.866;-0.072;2022-09-01T04:08:11;101434.87;;;26.95;52.33
60487;BME280;46327;39.866;-0.072;2022-09-01T04:10:43;101431.77;;;27.02;52.07
60487;BME280;46327;39.866;-0.072;2022-09-01T04:13:11;101437.22;;;27.37;51.32
60487;BME280;46327;39.866;-0.072;2022-09-01T04:15:39;101438.14;;;27.19;51.69
60487;BME280;46327;39.866;-0.072;2022-09-01T04:18:06;101439.50;;;27.44;50.59
60487;BME280;46327;39.866;-0.072;2022-09-01T04:20:34;101436.30;;;27.05;51.35
60487;BME280;46327;39.866;-0.072;2022-09-01T04:23:01;101435.35;;;27.25;51.35
60487;BME280;46327;39.866;-0.072;2022-09-01T04:25:29;101437.84;;;27.40;50.60
60487;BME280;46327;39.866;-0.072;2022-09-01T04:27:57;101434.49;;;27.26;50.70
60487;BME280;46327;39.866;-0.072;2022-09-01T04:30:24;101433.93;;;26.93;51.38
60487;BME280;46327;39.866;-0.072;2022-09-01T04:32:52;101431.04;;;27.27;51.24
60487;BME280;46327;39.866;-0.072;2022-09-01T04:35:19;101427.37;;;27.12;51.38
60487;BME280;46327;39.866;-0.072;2022-09-01T04:37:47;101428.66;;;26.35;52.80
60487;BME280;46327;39.866;-0.072;2022-09-01T04:40:14;101431.11;;;26.67;52.55
60487;BME280;46327;39.866;-0.072;2022-09-01T04:42:42;101434.48;;;26.53;52.81
60487;BME280;46327;39.866;-0.072;2022-09-01T04:45:10;101438.18;;;26.49;52.50
60487;BME280;46327;39.866;-0.072;2022-09-01T04:47:37;101437.87;;;26.23;52.96
60487;BME280;46327;39.866;-0.072;2022-09-01T04:50:06;101439.33;;;26.63;52.59
60487;BME280;46327;39.866;-0.072;2022-09-01T04:52:33;101437.36;;;26.09;53.48
60487;BME280;46327;39.866;-0.072;2022-09-01T04:55:01;101432.94;;;25.95;53.33
60487;BME280;46327;39.866;-0.072;2022-09-01T04:57:28;101432.28;;;26.44;53.26
60487;BME280;46327;39.866;-0.072;2022-09-01T04:59:55;101428.24;;;25.44;55.12
60487;BME280;46327;39.866;-0.072;2022-09-01T05:02:24;101434.75;;;25.64;54.22
60487;BME280;46327;39.866;-0.072;2022-09-01T05:04:51;101439.69;;;26.00;53.86
60487;BME280;46327;39.866;-0.072;2022-09-01T05:07:18;101445.84;;;26.16;53.41
60487;BME280;46327;39.866;-0.072;2022-09-01T05:09:46;101446.24;;;25.84;53.99
60487;BME280;46327;39.866;-0.072;2022-09-01T05:12:15;101445.43;;;25.55;54.45
60487;BME280;46327;39.866;-0.072;2022-09-01T05:14:45;101443.57;;;25.50;54.69
60487;BME280;46327;39.866;-0.072;2022-09-01T05:17:12;101444.25;;;26.00;53.75
60487;BME280;46327;39.866;-0.072;2022-09-01T05:19:42;101446.46;;;25.68;54.81
60487;BME280;46327;39.866;-0.072;2022-09-01T05:22:10;101450.09;;;25.59;54.47
60487;BME280;46327;39.866;-0.072;2022-09-01T05:24:37;101452.47;;;25.73;53.65
60487;BME280;46327;39.866;-0.072;2022-09-01T05:27:05;101453.25;;;25.81;53.83
60487;BME280;46327;39.866;-0.072;2022-09-01T05:29:33;101449.69;;;25.81;53.77
60487;BME280;46327;39.866;-0.072;2022-09-01T05:32:01;101453.71;;;25.64;54.05
60487;BME280;46327;39.866;-0.072;2022-09-01T05:34:28;101459.16;;;25.51;54.08
60487;BME280;46327;39.866;-0.072;2022-09-01T05:36:58;101461.85;;;25.60;53.99
60487;BME280;46327;39.866;-0.072;2022-09-01T05:39:26;101467.38;;;26.03;52.67
60487;BME280;46327;39.866;-0.072;2022-09-01T05:41:53;101467.04;;;25.74;53.02
60487;BME280;46327;39.866;-0.072;2022-09-01T05:44:21;101463.24;;;25.93;52.87
60487;BME280;46327;39.866;-0.072;2022-09-01T05:46:49;101466.13;;;26.00;52.58
60487;BME280;46327;39.866;-0.072;2022-09-01T05:49:17;101473.25;;;26.37;51.78
60487;BME280;46327;39.866;-0.072;2022-09-01T05:51:47;101474.78;;;26.68;51.56
60487;BME280;46327;39.866;-0.072;2022-09-01T05:54:16;101473.00;;;26.29;51.72
60487;BME280;46327;39.866;-0.072;2022-09-01T05:56:45;101470.20;;;26.09;52.53
60487;BME280;46327;39.866;-0.072;2022-09-01T05:59:12;101467.04;;;26.52;50.83
60487;BME280;46327;39.866;-0.072;2022-09-01T06:01:40;101465.48;;;26.12;51.34
60487;BME280;46327;39.866;-0.072;2022-09-01T06:04:09;101471.97;;;26.44;50.69
60487;BME280;46327;39.866;-0.072;2022-09-01T06:06:38;101482.20;;;26.69;50.46
60487;BME280;46327;39.866;-0.072;2022-09-01T06:09:07;101485.70;;;26.83;49.73
60487;BME280;46327;39.866;-0.072;2022-09-01T06:11:34;101486.09;;;26.72;49.83
60487;BME280;46327;39.866;-0.072;2022-09-01T06:14:05;101487.65;;;26.77;50.19
60487;BME280;46327;39.866;-0.072;2022-09-01T06:16:33;101486.01;;;26.90;49.71
60487;BME280;46327;39.866;-0.072;2022-09-01T06:19:00;101481.94;;;26.94;49.06
60487;BME280;46327;39.866;-0.072;2022-09-01T06:21:28;101479.26;;;26.71;49.45
60487;BME280;46327;39.866;-0.072;2022-09-01T06:23:56;101477.11;;;26.84;49.23
60487;BME280;46327;39.866;-0.072;2022-09-01T06:26:26;101482.02;;;26.71;49.55
60487;BME280;46327;39.866;-0.072;2022-09-01T06:28:55;101481.47;;;26.72;49.22
60487;BME280;46327;39.866;-0.072;2022-09-01T06:31:25;101488.36;;;27.00;48.68
60487;BME280;46327;39.866;-0.072;2022-09-01T06:33:54;101489.95;;;26.91;48.46
60487;BME280;46327;39.866;-0.072;2022-09-01T06:36:23;101486.54;;;27.26;48.34
60487;BME280;46327;39.866;-0.072;2022-09-01T06:38:52;101486.05;;;27.64;47.69
60487;BME280;46327;39.866;-0.072;2022-09-01T06:41:21;101488.02;;;27.39;47.49
60487;BME280;46327;39.866;-0.072;2022-09-01T06:43:50;101491.58;;;27.21;47.70
60487;BME280;46327;39.866;-0.072;2022-09-01T06:46:18;101492.88;;;27.37;47.78
60487;BME280;46327;39.866;-0.072;2022-09-01T06:48:47;101499.81;;;27.35;47.85
60487;BME280;46327;39.866;-0.072;2022-09-01T06:51:16;101502.42;;;27.46;47.52
60487;BME280;46327;39.866;-0.072;2022-09-01T06:53:46;101502.26;;;27.35;47.62
60487;BME280;46327;39.866;-0.072;2022-09-01T06:56:13;101496.83;;;27.01;48.17
60487;BME280;46327;39.866;-0.072;2022-09-01T06:58:42;101498.34;;;26.77;48.12
60487;BME280;46327;39.866;-0.072;2022-09-01T07:01:09;101499.30;;;27.32;47.78
60487;BME280;46327;39.866;-0.072;2022-09-01T07:03:36;101503.56;;;27.19;47.64
60487;BME280;46327;39.866;-0.072;2022-09-01T07:06:05;101507.42;;;27.69;46.97
60487;BME280;46327;39.866;-0.072;2022-09-01T07:08:33;101509.16;;;27.05;47.61
60487;BME280;46327;39.866;-0.072;2022-09-01T07:11:00;101509.45;;;27.77;46.79
60487;BME280;46327;39.866;-0.072;2022-09-01T07:13:28;101514.31;;;27.61;46.80
60487;BME280;46327;39.866;-0.072;2022-09-01T07:15:55;101519.77;;;27.47;46.98
60487;BME280;46327;39.866;-0.072;2022-09-01T07:18:24;101517.98;;;27.14;47.59
60487;BME280;46327;39.866;-0.072;2022-09-01T07:20:53;101520.60;;;27.16;47.12
60487;BME280;46327;39.866;-0.072;2022-09-01T07:23:21;101520.75;;;27.33;47.46
60487;BME280;46327;39.866;-0.072;2022-09-01T07:25:49;101521.46;;;27.64;47.18
60487;BME280;46327;39.866;-0.072;2022-09-01T07:28:17;101524.23;;;27.19;47.94
60487;BME280;46327;39.866;-0.072;2022-09-01T07:30:47;101525.84;;;27.19;47.44
60487;BME280;46327;39.866;-0.072;2022-09-01T07:33:16;101527.22;;;27.76;46.96
60487;BME280;46327;39.866;-0.072;2022-09-01T07:35:44;101530.58;;;27.87;46.48
60487;BME280;46327;39.866;-0.072;2022-09-01T07:38:12;101528.57;;;27.62;46.76
60487;BME280;46327;39.866;-0.072;2022-09-01T07:40:41;101529.95;;;27.58;46.51
60487;BME280;46327;39.866;-0.072;2022-09-01T07:43:15;101534.11;;;27.87;45.86
60487;BME280;46327;39.866;-0.072;2022-09-01T07:45:44;101533.56;;;28.46;45.58
60487;BME280;46327;39.866;-0.072;2022-09-01T07:48:11;101530.02;;;27.87;46.58
60487;BME280;46327;39.866;-0.072;2022-09-01T07:50:42;101529.82;;;27.72;46.83
60487;BME280;46327;39.866;-0.072;2022-09-01T07:53:12;101532.93;;;28.34;45.60
60487;BME280;46327;39.866;-0.072;2022-09-01T07:55:40;101534.20;;;27.43;46.53
60487;BME280;46327;39.866;-0.072;2022-09-01T07:58:07;101534.91;;;28.24;45.68
60487;BME280;46327;39.866;-0.072;2022-09-01T08:00:35;101533.36;;;28.14;46.02
60487;BME280;46327;39.866;-0.072;2022-09-01T08:03:02;101536.85;;;28.26;45.44
60487;BME280;46327;39.866;-0.072;2022-09-01T08:05:30;101534.51;;;27.85;45.92
60487;BME280;46327;39.866;-0.072;2022-09-01T08:07:57;101535.61;;;27.93;46.38
60487;BME280;46327;39.866;-0.072;2022-09-01T08:10:25;101536.10;;;27.94;46.24
60487;BME280;46327;39.866;-0.072;2022-09-01T08:12:52;101537.29;;;28.17;46.73
60487;BME280;46327;39.866;-0.072;2022-09-01T08:15:20;101541.42;;;28.46;46.84
60487;BME280;46327;39.866;-0.072;2022-09-01T08:17:48;101548.79;;;28.09;47.18
60487;BME280;46327;39.866;-0.072;2022-09-01T08:20:15;101546.51;;;28.56;47.12
60487;BME280;46327;39.866;-0.072;2022-09-01T08:22:43;101545.52;;;28.56;46.76
60487;BME280;46327;39.866;-0.072;2022-09-01T08:25:10;101546.22;;;28.19;47.93
60487;BME280;46327;39.866;-0.072;2022-09-01T08:27:38;101542.02;;;28.23;48.14
60487;BME280;46327;39.866;-0.072;2022-09-01T08:30:08;101540.80;;;28.47;48.04
60487;BME280;46327;39.866;-0.072;2022-09-01T08:32:37;101545.64;;;28.70;47.80
60487;BME280;46327;39.866;-0.072;2022-09-01T08:35:05;101545.18;;;28.49;47.73
60487;BME280;46327;39.866;-0.072;2022-09-01T08:37:33;101548.82;;;28.20;49.72
60487;BME280;46327;39.866;-0.072;2022-09-01T08:40:00;101554.31;;;27.75;50.50
60487;BME280;46327;39.866;-0.072;2022-09-01T08:42:39;101553.86;;;28.25;50.39
60487;BME280;46327;39.866;-0.072;2022-09-01T08:45:17;101551.97;;;28.42;50.64
60487;BME280;46327;39.866;-0.072;2022-09-01T08:47:47;101556.74;;;28.25;50.84
60487;BME280;46327;39.866;-0.072;2022-09-01T08:50:18;101563.29;;;27.91;51.29
60487;BME280;46327;39.866;-0.072;2022-09-01T08:52:50;101566.26;;;28.58;50.38
60487;BME280;46327;39.866;-0.072;2022-09-01T08:55:27;101566.54;;;28.60;50.58
60487;BME280;46327;39.866;-0.072;2022-09-01T08:57:59;101565.86;;;28.29;51.29
60487;BME280;46327;39.866;-0.072;2022-09-01T09:00:29;101568.69;;;28.69;51.12
60487;BME280;46327;39.866;-0.072;2022-09-01T09:03:08;101567.06;;;28.70;50.75
60487;BME280;46327;39.866;-0.072;2022-09-01T09:05:52;101565.27;;;28.28;51.28
60487;BME280;46327;39.866;-0.072;2022-09-01T09:08:43;101567.42;;;28.49;51.07
60487;BME280;46327;39.866;-0.072;2022-09-01T09:11:24;101566.55;;;28.42;51.85
60487;BME280;46327;39.866;-0.072;2022-09-01T09:14:03;101564.33;;;28.73;51.30
60487;BME280;46327;39.866;-0.072;2022-09-01T09:16:38;101561.78;;;28.61;51.64
60487;BME280;46327;39.866;-0.072;2022-09-01T09:19:09;101560.81;;;28.84;51.21
60487;BME280;46327;39.866;-0.072;2022-09-01T09:21:39;101560.97;;;28.81;51.59
60487;BME280;46327;39.866;-0.072;2022-09-01T09:24:12;101558.87;;;28.55;51.80
60487;BME280;46327;39.866;-0.072;2022-09-01T09:26:40;101558.22;;;28.89;51.03
60487;BME280;46327;39.866;-0.072;2022-09-01T09:29:08;101557.50;;;28.58;51.23
60487;BME280;46327;39.866;-0.072;2022-09-01T09:31:37;101557.66;;;29.06;50.78
60487;BME280;46327;39.866;-0.072;2022-09-01T09:34:31;101551.87;;;28.71;51.47
60487;BME280;46327;39.866;-0.072;2022-09-01T09:37:15;101552.21;;;28.54;51.76
60487;BME280;46327;39.866;-0.072;2022-09-01T09:39:42;101552.54;;;28.33;52.76
60487;BME280;46327;39.866;-0.072;2022-09-01T09:42:12;101554.91;;;28.46;53.05
60487;BME280;46327;39.866;-0.072;2022-09-01T09:44:42;101558.41;;;28.46;53.30
60487;BME280;46327;39.866;-0.072;2022-09-01T09:47:12;101558.89;;;28.53;53.19
60487;BME280;46327;39.866;-0.072;2022-09-01T09:50:13;101555.56;;;28.95;53.03
60487;BME280;46327;39.866;-0.072;2022-09-01T09:52:40;101553.77;;;28.76;53.55
60487;BME280;46327;39.866;-0.072;2022-09-01T09:55:21;101550.28;;;28.58;53.61
60487;BME280;46327;39.866;-0.072;2022-09-01T09:57:52;101550.77;;;28.77;53.55
60487;BME280;46327;39.866;-0.072;2022-09-01T10:00:22;101550.32;;;28.75;53.05
60487;BME280;46327;39.866;-0.072;2022-09-01T10:02:54;101547.66;;;28.40;54.29
60487;BME280;46327;39.866;-0.072;2022-09-01T10:05:30;101545.61;;;28.72;53.73
60487;BME280;46327;39.866;-0.072;2022-09-01T10:07:59;101545.48;;;28.81;52.86
60487;BME280;46327;39.866;-0.072;2022-09-01T10:10:30;101544.53;;;28.64;52.94
60487;BME280;46327;39.866;-0.072;2022-09-01T10:13:03;101538.93;;;28.59;53.64
60487;BME280;46327;39.866;-0.072;2022-09-01T10:15:31;101536.62;;;28.09;54.61
60487;BME280;46327;39.866;-0.072;2022-09-01T10:18:05;101535.82;;;28.39;54.39
60487;BME280;46327;39.866;-0.072;2022-09-01T10:20:34;101536.62;;;28.91;53.61
60487;BME280;46327;39.866;-0.072;2022-09-01T10:23:03;101532.57;;;28.77;53.81
60487;BME280;46327;39.866;-0.072;2022-09-01T10:25:33;101532.98;;;28.98;53.82
60487;BME280;46327;39.866;-0.072;2022-09-01T10:28:07;101530.64;;;28.85;54.46
60487;BME280;46327;39.866;-0.072;2022-09-01T10:30:36;101529.09;;;28.81;54.28
60487;BME280;46327;39.866;-0.072;2022-09-01T10:33:05;101531.74;;;29.31;53.19
60487;BME280;46327;39.866;-0.072;2022-09-01T10:35:35;101528.70;;;28.45;54.17
60487;BME280;46327;39.866;-0.072;2022-09-01T10:38:05;101530.97;;;28.96;53.67
60487;BME280;46327;39.866;-0.072;2022-09-01T10:40:37;101526.07;;;28.81;53.69
60487;BME280;46327;39.866;-0.072;2022-09-01T10:43:26;101523.24;;;28.86;53.29
60487;BME280;46327;39.866;-0.072;2022-09-01T10:45:55;101518.89;;;29.34;53.02
60487;BME280;46327;39.866;-0.072;2022-09-01T10:48:27;101513.17;;;29.21;53.24
60487;BME280;46327;39.866;-0.072;2022-09-01T10:51:40;101507.65;;;28.92;53.40
60487;BME280;46327;39.866;-0.072;2022-09-01T10:54:09;101501.33;;;28.55;54.99
60487;BME280;46327;39.866;-0.072;2022-09-01T10:57:27;101498.01;;;28.71;53.95
60487;BME280;46327;39.866;-0.072;2022-09-01T11:00:48;101493.60;;;28.67;54.29
60487;BME280;46327;39.866;-0.072;2022-09-01T11:03:50;101486.39;;;29.16;53.68
60487;BME280;46327;39.866;-0.072;2022-09-01T11:06:56;101486.45;;;28.91;53.70
60487;BME280;46327;39.866;-0.072;2022-09-01T11:09:27;101488.03;;;29.14;54.11
60487;BME280;46327;39.866;-0.072;2022-09-01T11:12:09;101483.55;;;29.14;54.27
60487;BME280;46327;39.866;-0.072;2022-09-01T11:14:48;101480.48;;;29.00;53.86
60487;BME280;46327;39.866;-0.072;2022-09-01T11:17:20;101477.45;;;29.07;54.56
60487;BME280;46327;39.866;-0.072;2022-09-01T11:20:02;101474.39;;;28.86;54.67
60487;BME280;46327;39.866;-0.072;2022-09-01T11:22:33;101473.39;;;28.99;54.65
60487;BME280;46327;39.866;-0.072;2022-09-01T11:25:39;101472.72;;;29.22;54.10
60487;BME280;46327;39.866;-0.072;2022-09-01T11:28:41;101466.71;;;29.44;53.93
60487;BME280;46327;39.866;-0.072;2022-09-01T11:31:23;101465.18;;;29.79;53.13
60487;BME280;46327;39.866;-0.072;2022-09-01T11:34:14;101464.30;;;29.56;53.68
60487;BME280;46327;39.866;-0.072;2022-09-01T11:36:51;101461.62;;;29.59;53.74
60487;BME280;46327;39.866;-0.072;2022-09-01T11:39:30;101457.90;;;29.40;54.08
60487;BME280;46327;39.866;-0.072;2022-09-01T11:42:01;101460.98;;;29.06;55.39
60487;BME280;46327;39.866;-0.072;2022-09-01T11:44:33;101456.87;;;29.10;54.98
60487;BME280;46327;39.866;-0.072;2022-09-01T11:47:05;101457.72;;;29.19;54.87
60487;BME280;46327;39.866;-0.072;2022-09-01T11:49:36;101460.24;;;29.64;54.41
60487;BME280;46327;39.866;-0.072;2022-09-01T11:52:05;101461.02;;;29.68;54.38
60487;BME280;46327;39.866;-0.072;2022-09-01T11:54:39;101457.17;;;29.80;54.74
60487;BME280;46327;39.866;-0.072;2022-09-01T11:57:26;101453.11;;;29.43;54.84
60487;BME280;46327;39.866;-0.072;2022-09-01T11:59:54;101448.20;;;29.10;55.45
60487;BME280;46327;39.866;-0.072;2022-09-01T12:02:23;101443.73;;;29.19;55.65
60487;BME280;46327;39.866;-0.072;2022-09-01T12:04:51;101442.71;;;29.06;55.85
60487;BME280;46327;39.866;-0.072;2022-09-01T12:07:32;101441.22;;;28.98;55.59
60487;BME280;46327;39.866;-0.072;2022-09-01T12:10:01;101443.65;;;29.03;55.99
60487;BME280;46327;39.866;-0.072;2022-09-01T12:12:31;101442.15;;;29.06;56.22
60487;BME280;46327;39.866;-0.072;2022-09-01T12:15:00;101440.96;;;29.44;55.26
60487;BME280;46327;39.866;-0.072;2022-09-01T12:17:28;101442.95;;;29.30;55.59
60487;BME280;46327;39.866;-0.072;2022-09-01T12:19:58;101438.84;;;29.16;55.82
60487;BME280;46327;39.866;-0.072;2022-09-01T12:22:44;101434.08;;;29.09;55.93
60487;BME280;46327;39.866;-0.072;2022-09-01T12:25:18;101435.59;;;29.44;55.13
60487;BME280;46327;39.866;-0.072;2022-09-01T12:27:47;101434.52;;;29.29;55.51
60487;BME280;46327;39.866;-0.072;2022-09-01T12:30:14;101436.50;;;29.49;55.18
60487;BME280;46327;39.866;-0.072;2022-09-01T12:32:42;101436.30;;;29.24;55.81
60487;BME280;46327;39.866;-0.072;2022-09-01T12:35:15;101439.52;;;29.14;56.07
60487;BME280;46327;39.866;-0.072;2022-09-01T12:37:43;101446.34;;;29.57;55.71
60487;BME280;46327;39.866;-0.072;2022-09-01T12:40:23;101447.16;;;29.86;54.61
60487;BME280;46327;39.866;-0.072;2022-09-01T12:42:52;101448.66;;;29.91;54.73
60487;BME280;46327;39.866;-0.072;2022-09-01T12:45:39;101451.02;;;29.42;55.50
60487;BME280;46327;39.866;-0.072;2022-09-01T12:48:23;101449.85;;;29.52;55.36
60487;BME280;46327;39.866;-0.072;2022-09-01T12:50:51;101447.75;;;29.17;55.79
60487;BME280;46327;39.866;-0.072;2022-09-01T12:53:23;101445.31;;;29.17;56.20
60487;BME280;46327;39.866;-0.072;2022-09-01T12:55:58;101443.26;;;29.18;56.42
60487;BME280;46327;39.866;-0.072;2022-09-01T12:58:30;101435.80;;;30.00;55.11